Time,TemperatureF,DewpointF,PressureIn,WindDirection,WindDirectionDegrees,WindSpeedMPH,WindSpeedGustMPH,Humidity,HourlyPrecipIn,Conditions,Clouds,dailyrainin,SoftwareType,DateUTC
2013-04-07 00:09:00,40.2,29.0,30.30,South,169,0.0,3.0,64,0.00,,,0.00,weatherlink.com 1.10,2013-04-07 04:09:00,
2013-04-07 00:24:00,40.0,29.0,30.30,South,174,0.0,3.0,65,0.00,,,0.00,weatherlink.com 1.10,2013-04-07 04:24:00,
2013-04-07 00:39:00,40.1,28.0,30.30,ESE,122,1.0,3.0,63,0.00,,,0.00,weatherlink.com 1.10,2013-04-07 04:39:00,
2013-04-07 00:54:00,40.2,28.0,30.30,South,174,1.0,3.0,63,0.00,,,0.00,weatherlink.com 1.10,2013-04-07 04:54:00,
2013-04-07 01:24:00,39.9,29.0,30.29,SSE,158,2.0,4.0,64,0.00,,,0.00,weatherlink.com 1.10,2013-04-07 05:24:00,
2013-04-07 01:39:00,39.8,29.0,30.30,SSW,204,2.0,4.0,65,0.00,,,0.00,weatherlink.com 1.10,2013-04-07 05:39:00,
2013-04-07 01:54:00,39.7,29.0,30.30,SSE,165,0.0,3.0,65,0.00,,,0.00,weatherlink.com 1.10,2013-04-07 05:54:00,
2013-04-07 04:02:00,39.0,30.0,30.28,SSW,195,0.0,4.0,71,0.00,,,0.00,weatherlink.com 1.10,2013-04-07 08:02:00,
2013-04-07 04:40:00,39.1,31.0,30.27,SSE,166,0.0,3.0,72,0.00,,,0.00,weatherlink.com 1.10,2013-04-07 08:40:00,
2013-04-07 04:55:00,39.2,31.0,30.27,SSE,159,1.0,3.0,73,0.00,,,0.00,weatherlink.com 1.10,2013-04-07 08:55:00,
2013-04-07 05:10:00,39.2,31.0,30.27,SSE,150,0.0,3.0,73,0.00,,,0.00,weatherlink.com 1.10,2013-04-07 09:10:00,
2013-04-07 05:25:00,39.3,31.0,30.27,SSE,167,1.0,3.0,73,0.00,,,0.00,weatherlink.com 1.10,2013-04-07 09:25:00,
2013-04-07 05:40:00,39.2,32.0,30.27,SSE,158,1.0,2.0,74,0.00,,,0.00,weatherlink.com 1.10,2013-04-07 09:40:00,
2013-04-07 05:55:00,39.5,32.0,30.27,South,169,1.0,3.0,74,0.00,,,0.00,weatherlink.com 1.10,2013-04-07 09:55:00,
2013-04-07 06:10:00,39.7,31.0,30.27,SSE,167,1.0,2.0,72,0.00,,,0.00,weatherlink.com 1.10,2013-04-07 10:10:00,
2013-04-07 06:25:00,40.0,31.0,30.27,South,174,2.0,5.0,71,0.00,,,0.00,weatherlink.com 1.10,2013-04-07 10:25:00,
2013-04-07 06:40:00,40.2,31.0,30.28,South,170,1.0,4.0,69,0.00,,,0.00,weatherlink.com 1.10,2013-04-07 10:40:00,
2013-04-07 06:55:00,40.4,30.0,30.28,SSE,148,4.0,5.0,67,0.00,,,0.00,weatherlink.com 1.10,2013-04-07 10:55:00,
2013-04-07 07:10:00,40.5,30.0,30.27,South,191,0.0,5.0,66,0.00,,,0.00,weatherlink.com 1.10,2013-04-07 11:10:00,
2013-04-07 07:25:00,40.7,30.0,30.27,South,186,1.0,4.0,65,0.00,,,0.00,weatherlink.com 1.10,2013-04-07 11:25:00,
2013-04-07 07:40:00,41.0,30.0,30.27,South,174,1.0,4.0,64,0.00,,,0.00,weatherlink.com 1.10,2013-04-07 11:40:00,
2013-04-07 07:55:00,41.4,29.0,30.27,SSE,165,1.0,3.0,61,0.00,,,0.00,weatherlink.com 1.10,2013-04-07 11:55:00,
2013-04-07 08:10:00,41.9,29.0,30.27,South,184,1.0,2.0,60,0.00,,,0.00,weatherlink.com 1.10,2013-04-07 12:10:00,
2013-04-07 08:25:00,42.7,29.0,30.27,SSW,200,1.0,3.0,58,0.00,,,0.00,weatherlink.com 1.10,2013-04-07 12:25:00,
2013-04-07 08:40:00,43.2,29.0,30.27,South,184,1.0,3.0,57,0.00,,,0.00,weatherlink.com 1.10,2013-04-07 12:40:00,
2013-04-07 08:55:00,43.8,28.0,30.26,SSW,203,3.0,5.0,54,0.00,,,0.00,weatherlink.com 1.10,2013-04-07 12:55:00,
2013-04-07 09:10:00,44.5,27.0,30.26,SSE,165,0.0,7.0,51,0.00,,,0.00,weatherlink.com 1.10,2013-04-07 13:10:00,
2013-04-07 09:25:00,46.4,28.0,30.26,South,186,3.0,7.0,49,0.00,,,0.00,weatherlink.com 1.10,2013-04-07 13:25:00,
2013-04-07 09:55:00,48.4,29.0,30.25,SSE,163,2.0,7.0,48,0.00,,,0.00,weatherlink.com 1.10,2013-04-07 13:55:00,
2013-04-07 10:10:00,49.3,29.0,30.24,SSW,197,4.0,8.0,46,0.00,,,0.00,weatherlink.com 1.10,2013-04-07 14:10:00,
2013-04-07 10:25:00,50.1,30.0,30.23,South,169,3.0,10.0,46,0.00,,,0.00,weatherlink.com 1.10,2013-04-07 14:25:00,
2013-04-07 10:40:00,51.0,30.0,30.23,SSE,159,4.0,11.0,45,0.00,,,0.00,weatherlink.com 1.10,2013-04-07 14:40:00,
2013-04-07 10:56:00,51.5,30.0,30.23,South,172,1.0,8.0,44,0.00,,,0.00,weatherlink.com 1.10,2013-04-07 14:56:00,
2013-04-07 11:11:00,52.8,31.0,30.22,SE,127,2.0,7.0,43,0.00,,,0.00,weatherlink.com 1.10,2013-04-07 15:11:00,
2013-04-07 11:26:00,53.6,28.0,30.21,SE,142,3.0,8.0,38,0.00,,,0.00,weatherlink.com 1.10,2013-04-07 15:26:00,
2013-04-07 11:56:00,54.1,35.0,30.19,SSW,200,1.0,8.0,49,0.00,,,0.00,weatherlink.com 1.10,2013-04-07 15:56:00,
2013-04-07 12:41:00,54.6,38.0,30.16,South,187,2.0,10.0,53,0.00,,,0.00,weatherlink.com 1.10,2013-04-07 16:41:00,
2013-04-07 12:56:00,54.6,38.0,30.14,South,179,7.0,12.0,53,0.00,,,0.00,weatherlink.com 1.10,2013-04-07 16:56:00,
2013-04-07 13:26:00,55.1,40.0,30.12,South,186,3.0,10.0,57,0.00,,,0.00,weatherlink.com 1.10,2013-04-07 17:26:00,
2013-04-07 13:41:00,55.7,40.0,30.12,SSW,198,7.0,10.0,57,0.00,,,0.00,weatherlink.com 1.10,2013-04-07 17:41:00,
2013-04-07 14:11:00,55.3,41.0,30.10,South,184,4.0,8.0,60,0.00,,,0.00,weatherlink.com 1.10,2013-04-07 18:11:00,
2013-04-07 14:26:00,54.8,41.0,30.09,SE,146,2.0,10.0,61,0.00,,,0.00,weatherlink.com 1.10,2013-04-07 18:26:00,
2013-04-07 14:41:00,55.6,42.0,30.09,WSW,240,6.0,10.0,61,0.00,,,0.00,weatherlink.com 1.10,2013-04-07 18:41:00,
2013-04-07 15:11:00,55.7,43.0,30.06,SW,214,2.0,8.0,62,0.00,,,0.00,weatherlink.com 1.10,2013-04-07 19:11:00,
2013-04-07 15:26:00,55.2,43.0,30.05,WSW,243,2.0,9.0,63,0.00,,,0.00,weatherlink.com 1.10,2013-04-07 19:26:00,
2013-04-07 15:42:00,54.6,42.0,30.04,South,188,4.0,14.0,63,0.00,,,0.00,weatherlink.com 1.10,2013-04-07 19:42:00,
2013-04-07 15:57:00,54.5,42.0,30.02,SSW,210,3.0,12.0,64,0.00,,,0.00,weatherlink.com 1.10,2013-04-07 19:57:00,
2013-04-07 16:12:00,55.1,43.0,30.02,SW,219,1.0,9.0,64,0.00,,,0.00,weatherlink.com 1.10,2013-04-07 20:12:00,
2013-04-07 16:27:00,54.8,43.0,30.00,South,190,3.0,13.0,64,0.00,,,0.00,weatherlink.com 1.10,2013-04-07 20:27:00,
2013-04-07 16:42:00,54.1,43.0,30.01,SSW,198,5.0,11.0,66,0.00,,,0.00,weatherlink.com 1.10,2013-04-07 20:42:00,
2013-04-07 16:57:00,54.7,43.0,30.01,ESE,103,4.0,10.0,66,0.00,,,0.00,weatherlink.com 1.10,2013-04-07 20:57:00,
2013-04-07 17:12:00,55.2,44.0,30.00,WSW,250,4.0,10.0,65,0.00,,,0.00,weatherlink.com 1.10,2013-04-07 21:12:00,
2013-04-07 17:42:00,52.6,43.0,29.98,SSW,194,4.0,10.0,71,0.00,,,0.00,weatherlink.com 1.10,2013-04-07 21:42:00,
2013-04-07 17:57:00,52.1,44.0,29.99,South,191,1.0,9.0,73,0.00,,,0.00,weatherlink.com 1.10,2013-04-07 21:57:00,
2013-04-07 18:12:00,52.1,44.0,29.99,South,174,5.0,10.0,73,0.00,,,0.00,weatherlink.com 1.10,2013-04-07 22:12:00,
2013-04-07 18:27:00,51.9,44.0,29.99,South,188,6.0,8.0,74,0.00,,,0.00,weatherlink.com 1.10,2013-04-07 22:27:00,
2013-04-07 18:42:00,52.3,44.0,29.99,SSW,207,0.0,6.0,74,0.00,,,0.00,weatherlink.com 1.10,2013-04-07 22:42:00,
2013-04-07 18:57:00,53.2,44.0,30.00,SSE,162,3.0,4.0,72,0.00,,,0.00,weatherlink.com 1.10,2013-04-07 22:57:00,
2013-04-07 19:12:00,55.0,44.0,30.00,SE,146,2.0,5.0,67,0.00,,,0.00,weatherlink.com 1.10,2013-04-07 23:12:00,
2013-04-07 19:27:00,55.7,44.0,29.99,South,174,2.0,6.0,66,0.00,,,0.00,weatherlink.com 1.10,2013-04-07 23:27:00,
2013-04-07 19:42:00,56.8,44.0,30.00,South,174,1.0,5.0,63,0.00,,,0.00,weatherlink.com 1.10,2013-04-07 23:42:00,
2013-04-07 19:57:00,57.6,44.0,30.01,SSW,195,1.0,6.0,62,0.00,,,0.00,weatherlink.com 1.10,2013-04-07 23:57:00,
2013-04-07 20:12:00,57.6,44.0,30.01,South,191,1.0,5.0,62,0.00,,,0.00,weatherlink.com 1.10,2013-04-08 00:12:00,
2013-04-07 20:42:00,56.7,45.0,30.02,SSE,155,2.0,4.0,64,0.00,,,0.00,weatherlink.com 1.10,2013-04-08 00:42:00,
2013-04-07 20:57:00,56.1,44.0,30.01,SSE,163,1.0,6.0,65,0.00,,,0.00,weatherlink.com 1.10,2013-04-08 00:57:00,
2013-04-07 21:12:00,55.6,44.0,30.01,SE,141,1.0,5.0,66,0.00,,,0.00,weatherlink.com 1.10,2013-04-08 01:12:00,
2013-04-07 21:27:00,55.3,44.0,30.01,South,174,1.0,5.0,67,0.00,,,0.00,weatherlink.com 1.10,2013-04-08 01:27:00,
2013-04-07 21:42:00,55.0,45.0,30.02,South,170,0.0,4.0,68,0.00,,,0.00,weatherlink.com 1.10,2013-04-08 01:42:00,
2013-04-07 21:57:00,55.0,45.0,30.02,SSE,160,2.0,7.0,69,0.00,,,0.00,weatherlink.com 1.10,2013-04-08 01:57:00,
2013-04-07 22:12:00,54.9,45.0,30.02,South,174,2.0,4.0,69,0.00,,,0.00,weatherlink.com 1.10,2013-04-08 02:12:00,
2013-04-07 22:27:00,54.9,45.0,30.01,South,181,3.0,5.0,69,0.00,,,0.00,weatherlink.com 1.10,2013-04-08 02:27:00,
2013-04-07 22:42:00,54.8,45.0,30.01,SSE,153,1.0,5.0,69,0.00,,,0.00,weatherlink.com 1.10,2013-04-08 02:42:00,
2013-04-07 22:57:00,54.7,45.0,30.00,South,180,2.0,6.0,69,0.00,,,0.00,weatherlink.com 1.10,2013-04-08 02:57:00,
2013-04-07 23:12:00,54.5,44.0,30.00,South,179,5.0,5.0,69,0.00,,,0.00,weatherlink.com 1.10,2013-04-08 03:12:00,
2013-04-07 23:27:00,54.3,45.0,30.00,SSE,152,5.0,5.0,70,0.00,,,0.00,weatherlink.com 1.10,2013-04-08 03:27:00,
2013-04-07 23:42:00,54.1,45.0,29.99,South,181,2.0,7.0,70,0.00,,,0.00,weatherlink.com 1.10,2013-04-08 03:42:00,